»·PEaware :: UAL402 KDEN-KSAT

UAL402 :: KDEN-KSAT

FLIGHT INFORMATION

Flight Status: Arrived
Operator:
United Airlines
More flights by this operator :: More flights under this callsign
Pilot: Andrew J. (13363)
Aircraft: BOEING 737-800
(B738)
More flights by this aircraft type
Origin: KDEN Denver Intl
United States
Destination: KSAT San Antonio Intl
United States
More flights between these airports :: More routes between these airports
Route: STAKR3 BGS JCT CSI2
File this flight plan on PilotEdge
Remarks: Twitch.tv / ajonesieee
Altitude:
(Current/Filed)
37,000ft
Speed:
(Current/Filed)
460kts
Departed: 09-Aug-17 12:16 AM
Arrived: 09-Aug-17 02:06 AM
Distance/Time
Traveled:
691nm/1:50
Distance/Time
To Go:
Arrived

Flight Plot

Page will automatically refresh every two minutes.

Flight plan parsing failed; only flown route is shown


Map Options




Map Legend


Flown Route
Filed Route
Departure Airport
Arrival Airport
Navaid (VOR, NDB)
Fix

Horizontal Profiles

Position Reports

Time Latitude Longitude Heading Altitude Ground
Speed
08-Aug-17 23:44 39.859441 -104.672579 180 5323ft 0kts
08-Aug-17 23:45 39.859441 -104.672579 180 5323ft 0kts
08-Aug-17 23:46 39.859441 -104.672579 180 5323ft 0kts
08-Aug-17 23:47 39.859441 -104.672579 180 5323ft 0kts
08-Aug-17 23:48 39.859441 -104.672579 180 5323ft 0kts
08-Aug-17 23:49 39.859441 -104.672579 180 5323ft 0kts
08-Aug-17 23:50 39.859441 -104.672579 180 5323ft 0kts
08-Aug-17 23:51 39.859441 -104.672579 180 5323ft 0kts
08-Aug-17 23:52 39.859441 -104.672579 180 5323ft 0kts
08-Aug-17 23:53 39.859441 -104.672579 180 5323ft 0kts
08-Aug-17 23:54 39.859441 -104.672579 180 5323ft 0kts
08-Aug-17 23:55 39.859441 -104.672579 180 5323ft 0kts
08-Aug-17 23:56 39.859441 -104.672579 180 5323ft 0kts
08-Aug-17 23:57 39.859441 -104.672579 180 5323ft 0kts
08-Aug-17 23:58 39.859441 -104.672579 180 5323ft 0kts
08-Aug-17 23:59 39.859441 -104.672579 180 5323ft 0kts
09-Aug-17 00:00 39.859876 -104.672576 179 5323ft 2kts
09-Aug-17 00:01 39.860200 -104.672575 180 5323ft 0kts
09-Aug-17 00:02 39.860200 -104.672575 180 5323ft 0kts
09-Aug-17 00:03 39.860200 -104.672575 180 5323ft 0kts
09-Aug-17 00:04 39.860200 -104.672575 180 5323ft 0kts
09-Aug-17 00:05 39.859969 -104.672090 87 5323ft 4kts
09-Aug-17 00:06 39.859967 -104.669257 89 5323ft 9kts
09-Aug-17 00:07 39.860588 -104.666834 91 5323ft 6kts
09-Aug-17 00:08 39.860092 -104.664355 89 5323ft 7kts
09-Aug-17 00:09 39.860530 -104.662227 349 5323ft 3kts
09-Aug-17 00:10 39.861040 -104.661802 86 5323ft 2kts
09-Aug-17 00:11 39.861022 -104.661518 94 5323ft 0kts
09-Aug-17 00:12 39.861018 -104.661456 95 5323ft 0kts
09-Aug-17 00:13 39.861014 -104.661394 95 5323ft 0kts
09-Aug-17 00:14 39.861009 -104.661332 95 5323ft 0kts
09-Aug-17 00:15 39.861004 -104.661272 96 5323ft 0kts
09-Aug-17 00:16 39.860998 -104.661210 96 5323ft 0kts
09-Aug-17 00:17 39.860992 -104.661138 95 5323ft 0kts
09-Aug-17 00:18 39.860825 -104.660115 187 5323ft 4kts
09-Aug-17 00:19 39.847587 -104.660338 179 5324ft 123kts
09-Aug-17 00:20 39.804579 -104.656638 169 6343ft 168kts
09-Aug-17 00:21 39.755050 -104.636680 163 7606ft 217kts
09-Aug-17 00:22 39.687868 -104.605586 161 9070ft 294kts
09-Aug-17 00:23 39.607884 -104.572573 166 10735ft 334kts
09-Aug-17 00:24 39.510763 -104.544594 171 12863ft 374kts
09-Aug-17 00:25 39.407577 -104.521127 172 15724ft 389kts
09-Aug-17 00:26 39.299466 -104.496940 173 18896ft 405kts
09-Aug-17 00:27 39.187275 -104.471642 173 21722ft 422kts
09-Aug-17 00:28 39.070386 -104.441615 172 24206ft 441kts
09-Aug-17 00:29 38.949728 -104.408369 172 26550ft 455kts
09-Aug-17 00:30 38.844137 -104.379146 172 28872ft 454kts
09-Aug-17 00:31 38.724539 -104.346033 174 31411ft 446kts
09-Aug-17 00:32 38.614584 -104.274999 146 33352ft 462kts
09-Aug-17 00:33 38.516710 -104.171748 145 35039ft 461kts
09-Aug-17 00:34 38.420151 -104.067885 145 36577ft 458kts
09-Aug-17 00:35 38.323170 -103.963902 144 37238ft 469kts
09-Aug-17 00:36 38.221721 -103.855444 144 37241ft 485kts
09-Aug-17 00:37 38.119539 -103.746524 144 37225ft 484kts
09-Aug-17 00:38 38.007586 -103.664995 165 37235ft 469kts
09-Aug-17 00:39 37.887920 -103.613369 167 37225ft 467kts
09-Aug-17 00:40 37.765761 -103.562537 167 37223ft 467kts
09-Aug-17 00:41 37.643927 -103.512091 167 37224ft 466kts
09-Aug-17 00:42 37.521624 -103.461620 167 37225ft 466kts
09-Aug-17 00:43 37.399562 -103.411424 167 37225ft 466kts
09-Aug-17 00:44 37.277605 -103.361459 167 37227ft 466kts
09-Aug-17 00:45 37.155899 -103.311743 168 37247ft 466kts
09-Aug-17 00:46 37.034343 -103.262425 167 37261ft 460kts
09-Aug-17 00:47 36.914848 -103.213993 167 37262ft 456kts
09-Aug-17 00:48 36.797469 -103.166346 167 37263ft 457kts
09-Aug-17 00:49 36.677454 -103.117952 167 37264ft 457kts
09-Aug-17 00:50 36.557719 -103.069854 167 37264ft 458kts
09-Aug-17 00:51 36.437598 -103.021760 167 37265ft 458kts
09-Aug-17 00:52 36.317067 -102.973658 167 37265ft 459kts
09-Aug-17 00:53 36.196593 -102.925751 167 37260ft 459kts
09-Aug-17 00:54 36.076035 -102.877959 167 37238ft 459kts
09-Aug-17 00:55 35.955433 -102.830292 167 37221ft 459kts
09-Aug-17 00:56 35.835973 -102.783230 167 37221ft 459kts
09-Aug-17 00:57 35.715583 -102.735952 167 37222ft 459kts
09-Aug-17 00:58 35.595375 -102.688893 167 37222ft 459kts
09-Aug-17 00:59 35.474720 -102.641808 167 37227ft 459kts
09-Aug-17 01:00 35.354219 -102.594933 167 37249ft 459kts
09-Aug-17 01:01 35.233542 -102.548135 167 37251ft 459kts
09-Aug-17 01:02 35.112722 -102.501427 167 37251ft 459kts
09-Aug-17 01:03 34.992320 -102.455103 167 37251ft 461kts
09-Aug-17 01:04 34.873494 -102.409644 166 37250ft 466kts
09-Aug-17 01:05 34.751257 -102.362603 166 37251ft 466kts
09-Aug-17 01:06 34.629469 -102.316049 166 37244ft 465kts
09-Aug-17 01:07 34.507096 -102.269470 166 37244ft 465kts
09-Aug-17 01:08 34.385086 -102.223169 166 37244ft 465kts
09-Aug-17 01:09 34.262800 -102.176909 166 37227ft 465kts
09-Aug-17 01:10 34.140858 -102.130913 166 37219ft 465kts
09-Aug-17 01:11 34.018436 -102.084879 166 37220ft 465kts
09-Aug-17 01:12 33.898217 -102.039806 166 37220ft 465kts
09-Aug-17 01:13 33.777600 -101.994719 166 37219ft 465kts
09-Aug-17 01:14 33.654576 -101.948869 166 37219ft 465kts
09-Aug-17 01:15 33.532372 -101.903460 166 37220ft 465kts
09-Aug-17 01:16 33.409192 -101.857825 166 37220ft 465kts
09-Aug-17 01:17 33.286833 -101.812628 166 37221ft 465kts
09-Aug-17 01:18 33.164317 -101.767506 166 37222ft 465kts
09-Aug-17 01:19 33.041362 -101.722430 166 37221ft 464kts
09-Aug-17 01:20 32.919139 -101.677704 166 37216ft 463kts
09-Aug-17 01:21 32.798531 -101.633581 166 37212ft 463kts
09-Aug-17 01:22 32.676368 -101.589097 166 37217ft 463kts
09-Aug-17 01:23 32.554072 -101.544701 166 37222ft 463kts
09-Aug-17 01:24 32.432276 -101.500617 166 37223ft 464kts
09-Aug-17 01:25 32.322372 -101.422339 144 37232ft 472kts
09-Aug-17 01:26 32.226894 -101.332329 143 37220ft 472kts
09-Aug-17 01:27 32.125478 -101.236010 143 37219ft 472kts
09-Aug-17 01:28 32.023855 -101.139733 143 37219ft 472kts
09-Aug-17 01:29 31.922239 -101.043735 143 37220ft 472kts
09-Aug-17 01:30 31.823337 -100.950548 143 37195ft 473kts
09-Aug-17 01:31 31.721341 -100.854739 143 37154ft 474kts
09-Aug-17 01:32 31.619025 -100.758924 143 37148ft 474kts
09-Aug-17 01:33 31.516511 -100.663211 143 37148ft 474kts
09-Aug-17 01:34 31.413911 -100.567677 143 37149ft 474kts
09-Aug-17 01:35 31.311402 -100.472496 143 37150ft 474kts
09-Aug-17 01:36 31.208401 -100.377134 143 37151ft 474kts
09-Aug-17 01:37 31.105905 -100.282505 144 37145ft 474kts
09-Aug-17 01:38 31.003339 -100.188191 144 37151ft 472kts
09-Aug-17 01:39 30.902365 -100.095729 142 37144ft 460kts
09-Aug-17 01:40 30.818131 -100.018417 142 37138ft 457kts
09-Aug-17 01:41 30.720512 -99.929108 142 35433ft 437kts
09-Aug-17 01:42 30.630064 -99.846711 142 32625ft 396kts
09-Aug-17 01:43 30.547696 -99.772347 142 29888ft 363kts
09-Aug-17 01:44 30.471367 -99.703793 142 27246ft 339kts
09-Aug-17 01:45 30.399697 -99.639542 142 24681ft 321kts
09-Aug-17 01:46 30.331271 -99.578298 142 22654ft 305kts
09-Aug-17 01:47 30.265615 -99.519635 141 21181ft 298kts
09-Aug-17 01:48 30.201168 -99.462158 141 19696ft 291kts
09-Aug-17 01:49 30.135813 -99.403966 141 18350ft 300kts
09-Aug-17 01:50 30.071298 -99.346628 142 16871ft 290kts
09-Aug-17 01:51 30.012874 -99.294791 142 15477ft 283kts
09-Aug-17 01:52 29.951337 -99.240276 142 13990ft 278kts
09-Aug-17 01:53 29.907925 -99.171623 114 12521ft 271kts
09-Aug-17 01:54 29.878794 -99.096789 113 11120ft 267kts
09-Aug-17 01:55 29.849608 -99.019495 112 10029ft 253kts
09-Aug-17 01:56 29.821052 -98.940528 111 10054ft 271kts
09-Aug-17 01:57 29.792118 -98.860648 112 9962ft 274kts
09-Aug-17 01:58 29.762782 -98.781422 112 8942ft 266kts
09-Aug-17 01:59 29.704670 -98.753014 183 8161ft 242kts
09-Aug-17 02:00 29.645010 -98.757524 183 7686ft 244kts
09-Aug-17 02:01 29.577806 -98.762709 180 6807ft 241kts
09-Aug-17 02:02 29.529626 -98.719242 134 6082ft 224kts
09-Aug-17 02:03 29.486500 -98.670531 134 5222ft 203kts
09-Aug-17 02:04 29.447555 -98.626811 134 4185ft 196kts
09-Aug-17 02:05 29.437968 -98.570934 77 3731ft 190kts
09-Aug-17 02:06 29.466634 -98.526017 41 2446ft 170kts
09-Aug-17 02:07 29.498996 -98.493959 40 1388ft 137kts
09-Aug-17 02:08 29.527957 -98.465253 40 819ft 132kts
09-Aug-17 02:09 29.534547 -98.460671 228 817ft 7kts
09-Aug-17 02:10 29.531417 -98.463710 221 816ft 19kts
09-Aug-17 02:11 29.528028 -98.467068 219 816ft 13kts
09-Aug-17 02:12 29.528823 -98.469505 310 816ft 13kts
09-Aug-17 02:13 29.530540 -98.471347 291 817ft 6kts
09-Aug-17 02:14 29.529187 -98.472760 133 816ft 5kts
09-Aug-17 02:15 29.529089 -98.472629 130 816ft 0kts
09-Aug-17 02:16 29.529089 -98.472629 130 816ft 0kts
09-Aug-17 02:17 29.529089 -98.472629 130 816ft 0kts
09-Aug-17 02:18 29.529089 -98.472629 130 816ft 0kts
09-Aug-17 02:19 29.529089 -98.472629 130 816ft 0kts
09-Aug-17 02:20 29.529089 -98.472629 130 816ft 0kts
09-Aug-17 02:21 29.529089 -98.472629 130 816ft 0kts
09-Aug-17 02:22 29.529089 -98.472629 130 816ft 0kts
09-Aug-17 02:23 29.529089 -98.472629 130 816ft 0kts

Navigation Log

Ident Type
Flight plan parsing failed, navigation log unavailable